sensor_id;sensor_type;location;lat;lon;timestamp;P1;durP1;ratioP1;P2;durP2;ratioP2
68976;SDS011;56029;52.568;13.588;2022-07-11T00:02:04;6.50;;;2.00;;
68976;SDS011;56029;52.568;13.588;2022-07-11T00:04:31;5.85;;;1.77;;
68976;SDS011;56029;52.568;13.588;2022-07-11T00:06:57;7.50;;;2.00;;
68976;SDS011;56029;52.568;13.588;2022-07-11T00:09:23;5.60;;;2.00;;
68976;SDS011;56029;52.568;13.588;2022-07-11T00:11:49;6.28;;;1.95;;
68976;SDS011;56029;52.568;13.588;2022-07-11T00:14:15;6.97;;;2.10;;
68976;SDS011;56029;52.568;13.588;2022-07-11T00:16:41;8.13;;;2.20;;
68976;SDS011;56029;52.568;13.588;2022-07-11T00:19:07;5.40;;;2.13;;
68976;SDS011;56029;52.568;13.588;2022-07-11T00:21:33;9.50;;;2.13;;
68976;SDS011;56029;52.568;13.588;2022-07-11T00:24:04;6.93;;;1.90;;
68976;SDS011;56029;52.568;13.588;2022-07-11T00:26:31;9.15;;;2.28;;
68976;SDS011;56029;52.568;13.588;2022-07-11T00:28:57;5.10;;;1.80;;
68976;SDS011;56029;52.568;13.588;2022-07-11T00:31:22;6.18;;;2.22;;
68976;SDS011;56029;52.568;13.588;2022-07-11T00:33:48;6.00;;;2.00;;
68976;SDS011;56029;52.568;13.588;2022-07-11T00:36:14;8.52;;;2.35;;
68976;SDS011;56029;52.568;13.588;2022-07-11T00:38:39;4.97;;;2.00;;
68976;SDS011;56029;52.568;13.588;2022-07-11T00:41:05;7.25;;;2.10;;
68976;SDS011;56029;52.568;13.588;2022-07-11T00:43:35;7.07;;;2.27;;
68976;SDS011;56029;52.568;13.588;2022-07-11T00:46:02;5.22;;;1.95;;
68976;SDS011;56029;52.568;13.588;2022-07-11T00:48:28;6.85;;;1.95;;
68976;SDS011;56029;52.568;13.588;2022-07-11T00:50:55;7.88;;;2.20;;
68976;SDS011;56029;52.568;13.588;2022-07-11T00:53:22;7.22;;;2.30;;
68976;SDS011;56029;52.568;13.588;2022-07-11T00:55:47;6.57;;;2.13;;
68976;SDS011;56029;52.568;13.588;2022-07-11T00:58:14;7.13;;;2.15;;
68976;SDS011;56029;52.568;13.588;2022-07-11T01:00:40;6.35;;;2.22;;
68976;SDS011;56029;52.568;13.588;2022-07-11T01:03:06;7.23;;;2.20;;
68976;SDS011;56029;52.568;13.588;2022-07-11T01:05:32;7.43;;;2.05;;
68976;SDS011;56029;52.568;13.588;2022-07-11T01:07:58;8.57;;;2.38;;
68976;SDS011;56029;52.568;13.588;2022-07-11T01:10:24;6.60;;;2.07;;
68976;SDS011;56029;52.568;13.588;2022-07-11T01:12:49;6.77;;;2.20;;
68976;SDS011;56029;52.568;13.588;2022-07-11T01:15:15;5.75;;;2.28;;
68976;SDS011;56029;52.568;13.588;2022-07-11T01:17:41;4.68;;;2.00;;
68976;SDS011;56029;52.568;13.588;2022-07-11T01:20:06;7.37;;;2.50;;
68976;SDS011;56029;52.568;13.588;2022-07-11T01:22:35;5.97;;;2.45;;
68976;SDS011;56029;52.568;13.588;2022-07-11T01:25:05;5.15;;;2.40;;
68976;SDS011;56029;52.568;13.588;2022-07-11T01:27:32;7.88;;;2.20;;
68976;SDS011;56029;52.568;13.588;2022-07-11T01:29:58;7.60;;;2.40;;
68976;SDS011;56029;52.568;13.588;2022-07-11T01:32:23;8.27;;;2.50;;
68976;SDS011;56029;52.568;13.588;2022-07-11T01:34:49;7.20;;;2.60;;
68976;SDS011;56029;52.568;13.588;2022-07-11T01:37:14;5.60;;;2.20;;
68976;SDS011;56029;52.568;13.588;2022-07-11T01:39:40;6.80;;;2.30;;
68976;SDS011;56029;52.568;13.588;2022-07-11T01:42:05;8.27;;;2.50;;
68976;SDS011;56029;52.568;13.588;2022-07-11T01:44:31;6.73;;;2.20;;
68976;SDS011;56029;52.568;13.588;2022-07-11T01:46:57;6.70;;;2.40;;
68976;SDS011;56029;52.568;13.588;2022-07-11T01:49:22;7.47;;;2.30;;
68976;SDS011;56029;52.568;13.588;2022-07-11T01:51:48;7.50;;;2.40;;
68976;SDS011;56029;52.568;13.588;2022-07-11T01:54:14;6.50;;;2.20;;
68976;SDS011;56029;52.568;13.588;2022-07-11T01:56:40;6.53;;;2.35;;
68976;SDS011;56029;52.568;13.588;2022-07-11T01:59:06;7.22;;;2.60;;
68976;SDS011;56029;52.568;13.588;2022-07-11T02:01:31;5.23;;;2.07;;
68976;SDS011;56029;52.568;13.588;2022-07-11T02:03:57;5.63;;;2.43;;
68976;SDS011;56029;52.568;13.588;2022-07-11T02:06:23;7.85;;;2.80;;
68976;SDS011;56029;52.568;13.588;2022-07-11T02:08:49;9.50;;;2.80;;
68976;SDS011;56029;52.568;13.588;2022-07-11T02:11:14;7.23;;;2.60;;
68976;SDS011;56029;52.568;13.588;2022-07-11T02:13:40;7.10;;;2.60;;
68976;SDS011;56029;52.568;13.588;2022-07-11T02:16:06;5.83;;;2.03;;
68976;SDS011;56029;52.568;13.588;2022-07-11T02:18:31;6.53;;;2.37;;
68976;SDS011;56029;52.568;13.588;2022-07-11T02:20:59;8.90;;;2.53;;
68976;SDS011;56029;52.568;13.588;2022-07-11T02:23:25;7.07;;;2.40;;
68976;SDS011;56029;52.568;13.588;2022-07-11T02:25:51;9.67;;;2.43;;
68976;SDS011;56029;52.568;13.588;2022-07-11T02:28:18;8.33;;;2.40;;
68976;SDS011;56029;52.568;13.588;2022-07-11T02:30:44;8.18;;;3.00;;
68976;SDS011;56029;52.568;13.588;2022-07-11T02:33:10;6.60;;;2.28;;
68976;SDS011;56029;52.568;13.588;2022-07-11T02:35:39;5.15;;;2.30;;
68976;SDS011;56029;52.568;13.588;2022-07-11T02:38:04;6.30;;;2.23;;
68976;SDS011;56029;52.568;13.588;2022-07-11T02:40:30;9.13;;;2.43;;
68976;SDS011;56029;52.568;13.588;2022-07-11T02:42:56;6.63;;;2.15;;
68976;SDS011;56029;52.568;13.588;2022-07-11T02:45:21;7.53;;;2.73;;
68976;SDS011;56029;52.568;13.588;2022-07-11T02:47:47;8.90;;;2.42;;
68976;SDS011;56029;52.568;13.588;2022-07-11T02:50:13;7.20;;;2.40;;
68976;SDS011;56029;52.568;13.588;2022-07-11T02:52:39;6.47;;;2.28;;
68976;SDS011;56029;52.568;13.588;2022-07-11T02:55:08;6.47;;;2.40;;
68976;SDS011;56029;52.568;13.588;2022-07-11T02:57:35;5.60;;;2.28;;
68976;SDS011;56029;52.568;13.588;2022-07-11T03:00:01;8.27;;;2.37;;
68976;SDS011;56029;52.568;13.588;2022-07-11T03:02:29;7.47;;;2.30;;
68976;SDS011;56029;52.568;13.588;2022-07-11T03:04:54;9.75;;;2.60;;
68976;SDS011;56029;52.568;13.588;2022-07-11T03:07:20;7.30;;;2.70;;
68976;SDS011;56029;52.568;13.588;2022-07-11T03:09:46;6.50;;;2.35;;
68976;SDS011;56029;52.568;13.588;2022-07-11T03:12:11;5.53;;;2.37;;
68976;SDS011;56029;52.568;13.588;2022-07-11T03:14:37;8.33;;;2.43;;
68976;SDS011;56029;52.568;13.588;2022-07-11T03:17:02;8.50;;;2.80;;
68976;SDS011;56029;52.568;13.588;2022-07-11T03:19:28;6.47;;;2.60;;
68976;SDS011;56029;52.568;13.588;2022-07-11T03:21:54;8.90;;;2.70;;
68976;SDS011;56029;52.568;13.588;2022-07-11T03:24:19;5.47;;;2.30;;
68976;SDS011;56029;52.568;13.588;2022-07-11T03:26:45;7.47;;;2.60;;
68976;SDS011;56029;52.568;13.588;2022-07-11T03:29:10;8.70;;;2.40;;
68976;SDS011;56029;52.568;13.588;2022-07-11T03:31:35;5.72;;;2.38;;
68976;SDS011;56029;52.568;13.588;2022-07-11T03:34:01;6.10;;;2.90;;
68976;SDS011;56029;52.568;13.588;2022-07-11T03:36:27;9.03;;;2.33;;
68976;SDS011;56029;52.568;13.588;2022-07-11T03:38:52;8.43;;;2.50;;
68976;SDS011;56029;52.568;13.588;2022-07-11T03:41:18;9.00;;;2.40;;
68976;SDS011;56029;52.568;13.588;2022-07-11T03:43:43;8.87;;;2.53;;
68976;SDS011;56029;52.568;13.588;2022-07-11T03:46:09;9.23;;;2.80;;
68976;SDS011;56029;52.568;13.588;2022-07-11T03:48:35;6.05;;;2.20;;
68976;SDS011;56029;52.568;13.588;2022-07-11T03:51:00;6.77;;;2.23;;
68976;SDS011;56029;52.568;13.588;2022-07-11T03:53:26;5.00;;;2.40;;
68976;SDS011;56029;52.568;13.588;2022-07-11T03:55:52;7.68;;;2.50;;
68976;SDS011;56029;52.568;13.588;2022-07-11T03:58:18;5.70;;;2.10;;
68976;SDS011;56029;52.568;13.588;2022-07-11T04:00:43;7.10;;;2.27;;
68976;SDS011;56029;52.568;13.588;2022-07-11T04:03:09;12.53;;;2.80;;
68976;SDS011;56029;52.568;13.588;2022-07-11T04:05:35;8.68;;;2.80;;
68976;SDS011;56029;52.568;13.588;2022-07-11T04:08:01;6.47;;;2.67;;
68976;SDS011;56029;52.568;13.588;2022-07-11T04:10:27;6.22;;;2.10;;
68976;SDS011;56029;52.568;13.588;2022-07-11T04:12:53;6.13;;;2.10;;
68976;SDS011;56029;52.568;13.588;2022-07-11T04:15:19;7.50;;;2.63;;
68976;SDS011;56029;52.568;13.588;2022-07-11T04:17:44;5.10;;;2.50;;
68976;SDS011;56029;52.568;13.588;2022-07-11T04:20:10;6.05;;;2.30;;
68976;SDS011;56029;52.568;13.588;2022-07-11T04:22:35;6.10;;;2.33;;
68976;SDS011;56029;52.568;13.588;2022-07-11T04:25:01;5.25;;;2.20;;
68976;SDS011;56029;52.568;13.588;2022-07-11T04:27:27;6.10;;;2.40;;
68976;SDS011;56029;52.568;13.588;2022-07-11T04:29:53;6.40;;;2.10;;
68976;SDS011;56029;52.568;13.588;2022-07-11T04:32:19;8.52;;;2.30;;
68976;SDS011;56029;52.568;13.588;2022-07-11T04:34:45;8.30;;;2.67;;
68976;SDS011;56029;52.568;13.588;2022-07-11T04:37:10;6.47;;;2.22;;
68976;SDS011;56029;52.568;13.588;2022-07-11T04:39:36;6.37;;;2.53;;
68976;SDS011;56029;52.568;13.588;2022-07-11T04:42:01;7.90;;;2.40;;
68976;SDS011;56029;52.568;13.588;2022-07-11T04:44:27;5.90;;;2.37;;
68976;SDS011;56029;52.568;13.588;2022-07-11T04:46:53;6.10;;;2.33;;
68976;SDS011;56029;52.568;13.588;2022-07-11T04:49:19;5.47;;;2.53;;
68976;SDS011;56029;52.568;13.588;2022-07-11T04:51:45;6.50;;;2.50;;
68976;SDS011;56029;52.568;13.588;2022-07-11T04:54:11;7.63;;;2.10;;
68976;SDS011;56029;52.568;13.588;2022-07-11T04:56:36;5.73;;;2.10;;
68976;SDS011;56029;52.568;13.588;2022-07-11T04:59:03;5.07;;;2.00;;
68976;SDS011;56029;52.568;13.588;2022-07-11T05:01:31;8.98;;;2.50;;
68976;SDS011;56029;52.568;13.588;2022-07-11T05:03:56;7.73;;;2.50;;
68976;SDS011;56029;52.568;13.588;2022-07-11T05:06:22;6.47;;;2.40;;
68976;SDS011;56029;52.568;13.588;2022-07-11T05:08:48;6.27;;;2.30;;
68976;SDS011;56029;52.568;13.588;2022-07-11T05:11:13;8.02;;;2.17;;
68976;SDS011;56029;52.568;13.588;2022-07-11T05:13:39;5.73;;;2.30;;
68976;SDS011;56029;52.568;13.588;2022-07-11T05:16:05;5.10;;;2.08;;
68976;SDS011;56029;52.568;13.588;2022-07-11T05:18:31;6.60;;;2.60;;
68976;SDS011;56029;52.568;13.588;2022-07-11T05:20:57;7.93;;;2.50;;
68976;SDS011;56029;52.568;13.588;2022-07-11T05:23:23;7.27;;;2.57;;
68976;SDS011;56029;52.568;13.588;2022-07-11T05:25:48;6.50;;;2.50;;
68976;SDS011;56029;52.568;13.588;2022-07-11T05:28:13;6.63;;;2.37;;
68976;SDS011;56029;52.568;13.588;2022-07-11T05:30:39;6.80;;;2.47;;
68976;SDS011;56029;52.568;13.588;2022-07-11T05:33:05;7.35;;;2.30;;
68976;SDS011;56029;52.568;13.588;2022-07-11T05:35:30;7.57;;;2.10;;
68976;SDS011;56029;52.568;13.588;2022-07-11T05:37:56;5.10;;;2.42;;
68976;SDS011;56029;52.568;13.588;2022-07-11T05:40:21;6.23;;;2.13;;
68976;SDS011;56029;52.568;13.588;2022-07-11T05:42:47;7.07;;;2.70;;
68976;SDS011;56029;52.568;13.588;2022-07-11T05:45:12;7.10;;;2.28;;
68976;SDS011;56029;52.568;13.588;2022-07-11T05:47:38;6.37;;;2.30;;
68976;SDS011;56029;52.568;13.588;2022-07-11T05:50:04;6.73;;;2.13;;
68976;SDS011;56029;52.568;13.588;2022-07-11T05:52:30;7.47;;;2.00;;
68976;SDS011;56029;52.568;13.588;2022-07-11T05:54:57;7.85;;;2.20;;
68976;SDS011;56029;52.568;13.588;2022-07-11T05:57:22;7.75;;;2.33;;
68976;SDS011;56029;52.568;13.588;2022-07-11T05:59:48;5.43;;;2.10;;
68976;SDS011;56029;52.568;13.588;2022-07-11T06:02:14;7.72;;;2.28;;
68976;SDS011;56029;52.568;13.588;2022-07-11T06:04:39;6.17;;;2.03;;
68976;SDS011;56029;52.568;13.588;2022-07-11T06:07:08;7.05;;;2.10;;
68976;SDS011;56029;52.568;13.588;2022-07-11T06:09:33;8.30;;;2.23;;
68976;SDS011;56029;52.568;13.588;2022-07-11T06:11:59;10.52;;;2.58;;
68976;SDS011;56029;52.568;13.588;2022-07-11T06:14:24;9.50;;;2.57;;
68976;SDS011;56029;52.568;13.588;2022-07-11T06:16:51;7.65;;;2.35;;
68976;SDS011;56029;52.568;13.588;2022-07-11T06:19:17;6.25;;;2.30;;
68976;SDS011;56029;52.568;13.588;2022-07-11T06:21:43;11.03;;;2.50;;
68976;SDS011;56029;52.568;13.588;2022-07-11T06:24:08;8.40;;;2.33;;
68976;SDS011;56029;52.568;13.588;2022-07-11T06:26:34;7.60;;;2.17;;
68976;SDS011;56029;52.568;13.588;2022-07-11T06:29:00;7.00;;;2.28;;
68976;SDS011;56029;52.568;13.588;2022-07-11T06:31:25;4.63;;;2.20;;
68976;SDS011;56029;52.568;13.588;2022-07-11T06:33:51;8.38;;;2.78;;
68976;SDS011;56029;52.568;13.588;2022-07-11T06:36:20;6.50;;;2.13;;
68976;SDS011;56029;52.568;13.588;2022-07-11T06:38:48;9.45;;;2.25;;
68976;SDS011;56029;52.568;13.588;2022-07-11T06:41:15;8.07;;;2.40;;
68976;SDS011;56029;52.568;13.588;2022-07-11T06:43:40;7.73;;;2.43;;
68976;SDS011;56029;52.568;13.588;2022-07-11T06:46:06;7.18;;;2.20;;
68976;SDS011;56029;52.568;13.588;2022-07-11T06:48:31;7.10;;;2.30;;
68976;SDS011;56029;52.568;13.588;2022-07-11T06:50:57;8.25;;;2.10;;
68976;SDS011;56029;52.568;13.588;2022-07-11T06:53:23;6.57;;;2.07;;
68976;SDS011;56029;52.568;13.588;2022-07-11T06:55:48;8.93;;;2.50;;
68976;SDS011;56029;52.568;13.588;2022-07-11T06:58:14;6.32;;;2.35;;
68976;SDS011;56029;52.568;13.588;2022-07-11T07:01:01;5.15;;;2.10;;
68976;SDS011;56029;52.568;13.588;2022-07-11T07:03:28;8.00;;;2.27;;
68976;SDS011;56029;52.568;13.588;2022-07-11T07:05:55;5.32;;;2.15;;
68976;SDS011;56029;52.568;13.588;2022-07-11T07:08:23;9.63;;;2.50;;
68976;SDS011;56029;52.568;13.588;2022-07-11T07:10:50;9.05;;;2.42;;
68976;SDS011;56029;52.568;13.588;2022-07-11T07:13:16;4.47;;;2.05;;
68976;SDS011;56029;52.568;13.588;2022-07-11T07:15:42;6.80;;;2.13;;
68976;SDS011;56029;52.568;13.588;2022-07-11T07:18:07;5.37;;;1.93;;
68976;SDS011;56029;52.568;13.588;2022-07-11T07:20:33;5.97;;;1.83;;
68976;SDS011;56029;52.568;13.588;2022-07-11T07:22:58;6.30;;;2.13;;
68976;SDS011;56029;52.568;13.588;2022-07-11T07:25:24;6.35;;;2.20;;
68976;SDS011;56029;52.568;13.588;2022-07-11T07:27:50;4.33;;;1.80;;
68976;SDS011;56029;52.568;13.588;2022-07-11T07:30:16;6.18;;;2.10;;
68976;SDS011;56029;52.568;13.588;2022-07-11T07:32:41;6.80;;;1.90;;
68976;SDS011;56029;52.568;13.588;2022-07-11T07:35:07;6.18;;;2.08;;
68976;SDS011;56029;52.568;13.588;2022-07-11T07:37:33;7.40;;;2.17;;
68976;SDS011;56029;52.568;13.588;2022-07-11T07:39:58;6.17;;;2.00;;
68976;SDS011;56029;52.568;13.588;2022-07-11T07:42:24;7.33;;;2.40;;
68976;SDS011;56029;52.568;13.588;2022-07-11T07:44:49;8.10;;;2.20;;
68976;SDS011;56029;52.568;13.588;2022-07-11T07:47:15;5.63;;;2.03;;
68976;SDS011;56029;52.568;13.588;2022-07-11T07:49:40;5.53;;;2.00;;
68976;SDS011;56029;52.568;13.588;2022-07-11T07:52:06;4.57;;;1.80;;
68976;SDS011;56029;52.568;13.588;2022-07-11T07:54:31;7.13;;;2.20;;
68976;SDS011;56029;52.568;13.588;2022-07-11T07:56:57;6.88;;;2.13;;
68976;SDS011;56029;52.568;13.588;2022-07-11T07:59:22;7.07;;;2.20;;
68976;SDS011;56029;52.568;13.588;2022-07-11T08:01:50;4.60;;;1.85;;
68976;SDS011;56029;52.568;13.588;2022-07-11T08:04:16;6.65;;;1.90;;
68976;SDS011;56029;52.568;13.588;2022-07-11T08:06:42;6.10;;;1.90;;
68976;SDS011;56029;52.568;13.588;2022-07-11T08:09:08;4.60;;;2.25;;
68976;SDS011;56029;52.568;13.588;2022-07-11T08:11:33;6.23;;;1.93;;
68976;SDS011;56029;52.568;13.588;2022-07-11T08:14:00;4.28;;;1.90;;
68976;SDS011;56029;52.568;13.588;2022-07-11T08:16:26;6.28;;;2.00;;
68976;SDS011;56029;52.568;13.588;2022-07-11T08:18:56;5.00;;;1.90;;
68976;SDS011;56029;52.568;13.588;2022-07-11T08:21:22;4.73;;;2.00;;
68976;SDS011;56029;52.568;13.588;2022-07-11T08:23:47;4.78;;;2.30;;
68976;SDS011;56029;52.568;13.588;2022-07-11T08:26:13;7.27;;;1.80;;
68976;SDS011;56029;52.568;13.588;2022-07-11T08:28:39;5.47;;;1.83;;
68976;SDS011;56029;52.568;13.588;2022-07-11T08:31:04;7.00;;;2.20;;
68976;SDS011;56029;52.568;13.588;2022-07-11T08:33:30;4.90;;;1.70;;
68976;SDS011;56029;52.568;13.588;2022-07-11T08:35:56;5.32;;;1.70;;
68976;SDS011;56029;52.568;13.588;2022-07-11T08:38:21;7.60;;;2.20;;
68976;SDS011;56029;52.568;13.588;2022-07-11T08:40:51;4.35;;;1.60;;
68976;SDS011;56029;52.568;13.588;2022-07-11T08:43:17;6.70;;;1.90;;
68976;SDS011;56029;52.568;13.588;2022-07-11T08:45:47;6.13;;;1.70;;
68976;SDS011;56029;52.568;13.588;2022-07-11T08:48:13;6.63;;;1.70;;
68976;SDS011;56029;52.568;13.588;2022-07-11T08:50:40;5.50;;;1.70;;
68976;SDS011;56029;52.568;13.588;2022-07-11T08:53:06;4.60;;;1.80;;
68976;SDS011;56029;52.568;13.588;2022-07-11T08:55:31;6.17;;;1.83;;
68976;SDS011;56029;52.568;13.588;2022-07-11T08:57:58;3.88;;;1.30;;
68976;SDS011;56029;52.568;13.588;2022-07-11T09:00:24;5.07;;;1.50;;
68976;SDS011;56029;52.568;13.588;2022-07-11T09:02:49;2.75;;;1.40;;
68976;SDS011;56029;52.568;13.588;2022-07-11T09:05:18;4.53;;;1.70;;
68976;SDS011;56029;52.568;13.588;2022-07-11T09:07:46;6.63;;;1.53;;
68976;SDS011;56029;52.568;13.588;2022-07-11T09:10:14;4.13;;;1.50;;
68976;SDS011;56029;52.568;13.588;2022-07-11T09:13:02;4.32;;;1.50;;
68976;SDS011;56029;52.568;13.588;2022-07-11T09:18:28;4.50;;;1.40;;
68976;SDS011;56029;52.568;13.588;2022-07-11T09:20:58;4.80;;;1.30;;
68976;SDS011;56029;52.568;13.588;2022-07-11T09:23:45;3.72;;;1.42;;
68976;SDS011;56029;52.568;13.588;2022-07-11T09:26:33;4.80;;;1.80;;
68976;SDS011;56029;52.568;13.588;2022-07-11T09:29:09;5.05;;;1.85;;
68976;SDS011;56029;52.568;13.588;2022-07-11T09:31:36;3.43;;;1.47;;
68976;SDS011;56029;52.568;13.588;2022-07-11T09:34:07;2.88;;;1.33;;
68976;SDS011;56029;52.568;13.588;2022-07-11T09:36:40;3.83;;;1.20;;
68976;SDS011;56029;52.568;13.588;2022-07-11T09:39:07;4.55;;;1.40;;
68976;SDS011;56029;52.568;13.588;2022-07-11T09:41:34;5.53;;;1.60;;
68976;SDS011;56029;52.568;13.588;2022-07-11T09:44:08;3.33;;;1.40;;
68976;SDS011;56029;52.568;13.588;2022-07-11T09:46:48;3.95;;;1.55;;
68976;SDS011;56029;52.568;13.588;2022-07-11T09:49:16;3.83;;;1.33;;
68976;SDS011;56029;52.568;13.588;2022-07-11T09:51:55;3.78;;;1.52;;
68976;SDS011;56029;52.568;13.588;2022-07-11T09:54:30;5.20;;;1.60;;
68976;SDS011;56029;52.568;13.588;2022-07-11T09:56:56;4.20;;;1.40;;
68976;SDS011;56029;52.568;13.588;2022-07-11T09:59:22;4.45;;;1.33;;
68976;SDS011;56029;52.568;13.588;2022-07-11T10:01:48;3.85;;;1.30;;
68976;SDS011;56029;52.568;13.588;2022-07-11T10:04:14;4.83;;;1.40;;
68976;SDS011;56029;52.568;13.588;2022-07-11T10:06:39;4.17;;;1.60;;
68976;SDS011;56029;52.568;13.588;2022-07-11T10:09:05;6.93;;;1.48;;
68976;SDS011;56029;52.568;13.588;2022-07-11T10:11:32;4.03;;;1.40;;
68976;SDS011;56029;52.568;13.588;2022-07-11T10:14:01;2.90;;;1.00;;
68976;SDS011;56029;52.568;13.588;2022-07-11T10:16:40;1.92;;;1.20;;
68976;SDS011;56029;52.568;13.588;2022-07-11T10:19:16;2.58;;;1.13;;
68976;SDS011;56029;52.568;13.588;2022-07-11T10:21:56;4.28;;;1.40;;
68976;SDS011;56029;52.568;13.588;2022-07-11T10:24:36;2.90;;;1.00;;
68976;SDS011;56029;52.568;13.588;2022-07-11T10:27:32;3.90;;;1.20;;
68976;SDS011;56029;52.568;13.588;2022-07-11T10:30:01;2.97;;;1.30;;
68976;SDS011;56029;52.568;13.588;2022-07-11T10:32:27;1.52;;;1.00;;
68976;SDS011;56029;52.568;13.588;2022-07-11T10:35:09;3.03;;;1.30;;
68976;SDS011;56029;52.568;13.588;2022-07-11T10:37:50;3.83;;;1.40;;
68976;SDS011;56029;52.568;13.588;2022-07-11T10:57:13;3.15;;;1.30;;
68976;SDS011;56029;52.568;13.588;2022-07-11T11:02:23;3.07;;;1.40;;
68976;SDS011;56029;52.568;13.588;2022-07-11T11:04:50;2.03;;;1.20;;
68976;SDS011;56029;52.568;13.588;2022-07-11T11:07:41;3.30;;;1.10;;
68976;SDS011;56029;52.568;13.588;2022-07-11T11:10:44;6.25;;;1.40;;
68976;SDS011;56029;52.568;13.588;2022-07-11T11:13:10;2.45;;;1.20;;
68976;SDS011;56029;52.568;13.588;2022-07-11T11:28:39;3.43;;;1.50;;
68976;SDS011;56029;52.568;13.588;2022-07-11T11:31:31;2.63;;;1.40;;
68976;SDS011;56029;52.568;13.588;2022-07-11T11:33:58;2.72;;;1.35;;
68976;SDS011;56029;52.568;13.588;2022-07-11T11:36:25;2.08;;;0.90;;
68976;SDS011;56029;52.568;13.588;2022-07-11T11:38:53;2.70;;;1.27;;
68976;SDS011;56029;52.568;13.588;2022-07-11T11:41:22;1.83;;;1.10;;
68976;SDS011;56029;52.568;13.588;2022-07-11T11:43:53;4.47;;;1.40;;
68976;SDS011;56029;52.568;13.588;2022-07-11T11:46:30;2.58;;;1.48;;
68976;SDS011;56029;52.568;13.588;2022-07-11T11:49:01;2.55;;;1.30;;
68976;SDS011;56029;52.568;13.588;2022-07-11T11:51:29;2.92;;;1.38;;
68976;SDS011;56029;52.568;13.588;2022-07-11T11:53:56;3.50;;;1.40;;
68976;SDS011;56029;52.568;13.588;2022-07-11T11:59:10;3.30;;;1.40;;
68976;SDS011;56029;52.568;13.588;2022-07-11T12:01:41;3.53;;;1.27;;
68976;SDS011;56029;52.568;13.588;2022-07-11T12:04:09;2.03;;;0.98;;
68976;SDS011;56029;52.568;13.588;2022-07-11T12:06:36;3.63;;;1.20;;
68976;SDS011;56029;52.568;13.588;2022-07-11T12:11:35;2.20;;;0.90;;
68976;SDS011;56029;52.568;13.588;2022-07-11T12:14:02;1.98;;;1.20;;
68976;SDS011;56029;52.568;13.588;2022-07-11T12:16:28;2.10;;;1.38;;
68976;SDS011;56029;52.568;13.588;2022-07-11T12:19:07;5.07;;;1.40;;
68976;SDS011;56029;52.568;13.588;2022-07-11T12:21:45;1.92;;;1.17;;
68976;SDS011;56029;52.568;13.588;2022-07-11T12:24:14;3.08;;;1.30;;
68976;SDS011;56029;52.568;13.588;2022-07-11T12:26:42;2.08;;;1.00;;
68976;SDS011;56029;52.568;13.588;2022-07-11T12:31:42;2.23;;;1.10;;
68976;SDS011;56029;52.568;13.588;2022-07-11T12:34:08;3.38;;;1.20;;
68976;SDS011;56029;52.568;13.588;2022-07-11T12:36:33;2.57;;;1.10;;
68976;SDS011;56029;52.568;13.588;2022-07-11T12:38:59;2.72;;;1.17;;
68976;SDS011;56029;52.568;13.588;2022-07-11T12:41:25;1.80;;;1.20;;
68976;SDS011;56029;52.568;13.588;2022-07-11T12:43:50;1.80;;;1.05;;
68976;SDS011;56029;52.568;13.588;2022-07-11T12:46:37;3.45;;;1.33;;
68976;SDS011;56029;52.568;13.588;2022-07-11T12:49:03;1.50;;;0.90;;
68976;SDS011;56029;52.568;13.588;2022-07-11T12:51:43;2.72;;;1.00;;
68976;SDS011;56029;52.568;13.588;2022-07-11T12:54:14;1.95;;;0.90;;
68976;SDS011;56029;52.568;13.588;2022-07-11T12:56:40;3.70;;;1.20;;
68976;SDS011;56029;52.568;13.588;2022-07-11T12:59:18;2.13;;;1.00;;
68976;SDS011;56029;52.568;13.588;2022-07-11T13:01:58;3.53;;;1.17;;
68976;SDS011;56029;52.568;13.588;2022-07-11T13:10:13;1.33;;;0.90;;
68976;SDS011;56029;52.568;13.588;2022-07-11T13:12:39;2.47;;;0.98;;
68976;SDS011;56029;52.568;13.588;2022-07-11T13:15:06;1.50;;;1.40;;
68976;SDS011;56029;52.568;13.588;2022-07-11T13:17:38;1.25;;;1.00;;
68976;SDS011;56029;52.568;13.588;2022-07-11T13:20:15;2.33;;;0.90;;
68976;SDS011;56029;52.568;13.588;2022-07-11T13:22:43;2.08;;;0.80;;
68976;SDS011;56029;52.568;13.588;2022-07-11T13:25:10;4.32;;;1.10;;
68976;SDS011;56029;52.568;13.588;2022-07-11T13:27:40;2.03;;;0.93;;
68976;SDS011;56029;52.568;13.588;2022-07-11T13:30:08;2.28;;;1.08;;
68976;SDS011;56029;52.568;13.588;2022-07-11T13:32:37;2.80;;;1.20;;
68976;SDS011;56029;52.568;13.588;2022-07-11T13:35:03;2.55;;;1.13;;
68976;SDS011;56029;52.568;13.588;2022-07-11T13:37:29;2.05;;;1.10;;
68976;SDS011;56029;52.568;13.588;2022-07-11T13:39:55;4.17;;;1.23;;
68976;SDS011;56029;52.568;13.588;2022-07-11T13:42:20;1.93;;;1.13;;
68976;SDS011;56029;52.568;13.588;2022-07-11T13:44:46;2.75;;;1.10;;
68976;SDS011;56029;52.568;13.588;2022-07-11T13:47:12;3.50;;;1.40;;
68976;SDS011;56029;52.568;13.588;2022-07-11T13:49:39;1.52;;;1.00;;
68976;SDS011;56029;52.568;13.588;2022-07-11T13:52:05;2.22;;;1.08;;
68976;SDS011;56029;52.568;13.588;2022-07-11T13:54:30;2.90;;;1.10;;
68976;SDS011;56029;52.568;13.588;2022-07-11T13:56:57;2.28;;;1.02;;
68976;SDS011;56029;52.568;13.588;2022-07-11T13:59:23;1.92;;;1.02;;
68976;SDS011;56029;52.568;13.588;2022-07-11T14:01:48;1.60;;;0.87;;
68976;SDS011;56029;52.568;13.588;2022-07-11T14:04:14;3.15;;;1.10;;
68976;SDS011;56029;52.568;13.588;2022-07-11T14:06:40;3.43;;;1.27;;
68976;SDS011;56029;52.568;13.588;2022-07-11T14:09:06;2.33;;;1.20;;
68976;SDS011;56029;52.568;13.588;2022-07-11T14:11:32;3.50;;;1.40;;
68976;SDS011;56029;52.568;13.588;2022-07-11T14:13:58;2.95;;;1.30;;
68976;SDS011;56029;52.568;13.588;2022-07-11T14:16:24;3.07;;;1.00;;
68976;SDS011;56029;52.568;13.588;2022-07-11T14:18:50;1.77;;;1.20;;
68976;SDS011;56029;52.568;13.588;2022-07-11T14:21:16;2.65;;;1.27;;
68976;SDS011;56029;52.568;13.588;2022-07-11T14:23:42;2.53;;;1.20;;
68976;SDS011;56029;52.568;13.588;2022-07-11T14:26:08;1.57;;;1.10;;
68976;SDS011;56029;52.568;13.588;2022-07-11T14:28:34;2.40;;;1.00;;
68976;SDS011;56029;52.568;13.588;2022-07-11T14:31:00;1.83;;;1.10;;
68976;SDS011;56029;52.568;13.588;2022-07-11T14:33:26;2.23;;;1.00;;
68976;SDS011;56029;52.568;13.588;2022-07-11T14:35:52;2.25;;;1.00;;
68976;SDS011;56029;52.568;13.588;2022-07-11T14:38:17;1.47;;;0.90;;
68976;SDS011;56029;52.568;13.588;2022-07-11T14:40:43;2.67;;;1.00;;
68976;SDS011;56029;52.568;13.588;2022-07-11T14:43:08;2.30;;;1.10;;
68976;SDS011;56029;52.568;13.588;2022-07-11T14:45:34;1.33;;;1.10;;
68976;SDS011;56029;52.568;13.588;2022-07-11T14:48:00;2.50;;;0.90;;
68976;SDS011;56029;52.568;13.588;2022-07-11T14:50:26;2.10;;;1.00;;
68976;SDS011;56029;52.568;13.588;2022-07-11T14:52:52;3.05;;;1.20;;
68976;SDS011;56029;52.568;13.588;2022-07-11T14:55:17;1.60;;;1.10;;
68976;SDS011;56029;52.568;13.588;2022-07-11T14:57:43;3.67;;;1.33;;
68976;SDS011;56029;52.568;13.588;2022-07-11T15:00:09;2.13;;;1.03;;
68976;SDS011;56029;52.568;13.588;2022-07-11T15:02:34;2.40;;;1.25;;
68976;SDS011;56029;52.568;13.588;2022-07-11T15:05:19;3.13;;;1.02;;
68976;SDS011;56029;52.568;13.588;2022-07-11T15:07:45;4.13;;;1.67;;
68976;SDS011;56029;52.568;13.588;2022-07-11T15:10:29;3.60;;;1.33;;
68976;SDS011;56029;52.568;13.588;2022-07-11T15:13:13;2.70;;;1.20;;
68976;SDS011;56029;52.568;13.588;2022-07-11T15:15:39;18.77;;;3.92;;
68976;SDS011;56029;52.568;13.588;2022-07-11T15:18:05;3.37;;;1.60;;
68976;SDS011;56029;52.568;13.588;2022-07-11T15:20:31;1.27;;;1.00;;
68976;SDS011;56029;52.568;13.588;2022-07-11T15:22:56;1.63;;;1.00;;
68976;SDS011;56029;52.568;13.588;2022-07-11T15:25:23;1.45;;;1.02;;